PMDY METAR and TAF weather

Enter ICAO airport designator
Station Type Date Time Source
PMDY METAR 2022/12/10 00:56 UTC NOAA

PMDY 100056Z AUTO 14011KT 8SM CLR 25/22 A2999 RMK AO2 SLP157 T02500222 TSNO


Station Type Date Time Source
PMDY Decoded METAR 2022/12/10 00:56 UTC NOAA

Sand Island, Henderson Field Airport, HI, United States (PMDY) 28-13N 177-22W 6M
Dec 09, 2022 - 07:56 PM EST / 2022.12.10 0056 UTC
Wind: from the SE (140 degrees) at 13 MPH (11 KT):0
Visibility: 8 mile(s):0
Sky conditions: clear
Temperature: 77.0 F (25.0 C)
Dew Point: 72.0 F (22.2 C)
Relative Humidity: 84%
Pressure (altimeter): 29.99 in. Hg (1015 hPa)
ob: PMDY 100056Z AUTO 14011KT 8SM CLR 25/22 A2999 RMK AO2 SLP157 T02500222 TSNO
cycle: 1

Station Type Date Time Source
PMDY TAF 2022/12/10 02:45 UTC NOAA

TAF
AMD PMDY 100141Z 1002/1024 14012KT P6SM SCT015 SCT025
FM100900 17017KT P6SM SCT025 SCT040
FM101500 25012KT P6SM -SHRA SCT020 BKN040
FM101700 29012KT 6SM SHRA SCT015 OVC035
FM102300 01017KT P6SM VCSH SCT020 BKN040

Example: see airport list